Time;durP1;ratioP1;P1;durP2;ratioP2;P2;SDS_P1;SDS_P2;PMS_P1;PMS_P2;Temp;Humidity;BMP_temperature;BMP_pressure;BME280_temperature;BME280_humidity;BME280_pressure;Samples;Min_cycle;Max_cycle;Signal;HPM_P1;HPM_P2
2022/11/16 05:57:54;;;;;;;62.75;34.35;;;;;;;;;;5176776;23;20059;-61
2022/11/16 06:00:20;;;;;;;68.13;35.95;;;;;;;;;;4952059;28;20383;-61
2022/11/16 06:02:46;;;;;;;59.22;32.58;;;;;;;;;;4971049;28;20037;-66
2022/11/16 06:05:12;;;;;;;72.07;37.20;;;;;;;;;;4972327;28;20051;-62
2022/11/16 06:07:38;;;;;;;51.13;28.83;;;;;;;;;;4971668;28;20120;-63
2022/11/16 06:10:04;;;;;;;54.38;30.00;;;;;;;;;;4971934;28;20130;-62
2022/11/16 06:12:30;;;;;;;68.40;37.67;;;;;;;;;;4971767;28;20031;-67
2022/11/16 06:14:56;;;;;;;73.18;40.50;;;;;;;;;;4972357;28;20037;-61
2022/11/16 06:17:22;;;;;;;69.32;34.72;;;;;;;;;;4971785;28;20045;-62
2022/11/16 06:19:48;;;;;;;38.95;19.88;;;;;;;;;;4972075;28;20504;-62
2022/11/16 06:22:14;;;;;;;29.60;16.30;;;;;;;;;;4971709;28;20059;-62
2022/11/16 06:24:40;;;;;;;28.80;16.00;;;;;;;;;;4972061;28;20027;-69
2022/11/16 06:27:06;;;;;;;26.88;15.25;;;;;;;;;;4971800;28;20062;-62
2022/11/16 06:29:32;;;;;;;21.58;11.18;;;;;;;;;;4972190;28;20442;-65
2022/11/16 06:31:58;;;;;;;18.73;9.85;;;;;;;;;;4975602;28;20471;-70
2022/11/16 06:34:24;;;;;;;12.27;7.32;;;;;;;;;;4975350;28;20030;-67
2022/11/16 06:36:50;;;;;;;16.60;9.27;;;;;;;;;;4958057;28;20039;-69
2022/11/16 06:39:16;;;;;;;13.68;7.32;;;;;;;;;;4975474;28;20033;-62
2022/11/16 06:41:42;;;;;;;17.98;9.02;;;;;;;;;;4975288;28;20031;-62
2022/11/16 06:44:08;;;;;;;16.23;9.38;;;;;;;;;;4975524;28;20142;-63
2022/11/16 06:46:34;;;;;;;17.45;9.63;;;;;;;;;;4974795;28;20054;-68
2022/11/16 06:49:00;;;;;;;16.83;9.27;;;;;;;;;;4974655;28;20035;-63
2022/11/16 06:51:26;;;;;;;20.63;10.48;;;;;;;;;;4974830;28;20050;-62
2022/11/16 06:53:52;;;;;;;24.90;11.70;;;;;;;;;;4957649;28;20474;-62
2022/11/16 06:56:18;;;;;;;21.60;9.90;;;;;;;;;;4974631;28;20041;-61
2022/11/16 06:58:44;;;;;;;19.92;9.88;;;;;;;;;;4974660;28;20050;-63
2022/11/16 07:01:11;;;;;;;18.50;9.85;;;;;;;;;;4974832;28;20030;-65
2022/11/16 07:03:37;;;;;;;22.80;11.07;;;;;;;;;;4974747;28;20031;-65
2022/11/16 07:06:08;;;;;;;28.27;15.77;;;;;;;;;;4965575;28;20035;-62
2022/11/16 07:08:34;;;;;;;28.25;14.52;;;;;;;;;;4961062;28;20023;-62
2022/11/16 07:11:04;;;;;;;28.77;14.80;;;;;;;;;;4962872;28;20034;-61
2022/11/16 07:13:31;;;;;;;23.80;13.13;;;;;;;;;;4959926;28;20027;-63
2022/11/16 07:16:01;;;;;;;24.90;13.13;;;;;;;;;;4963432;28;20375;-60
2022/11/16 07:18:27;;;;;;;20.35;10.10;;;;;;;;;;4974112;28;20467;-62
2022/11/16 07:20:53;;;;;;;20.25;9.95;;;;;;;;;;4964827;28;20035;-61
2022/11/16 07:23:19;;;;;;;24.40;11.80;;;;;;;;;;4963081;28;20011;-69
2022/11/16 07:25:46;;;;;;;22.15;11.93;;;;;;;;;;4963700;28;20094;-61
2022/11/16 07:28:12;;;;;;;28.88;16.45;;;;;;;;;;4962146;28;20031;-73
2022/11/16 07:30:38;;;;;;;35.80;18.17;;;;;;;;;;4958918;28;20216;-62
2022/11/16 07:33:04;;;;;;;30.73;16.65;;;;;;;;;;4959481;28;20380;-61
2022/11/16 07:35:30;;;;;;;29.45;17.52;;;;;;;;;;4964295;28;20027;-61
2022/11/16 07:37:56;;;;;;;25.60;13.65;;;;;;;;;;4960009;28;20038;-61
2022/11/16 07:40:22;;;;;;;25.25;13.05;;;;;;;;;;4951197;28;20031;-68
2022/11/16 07:42:48;;;;;;;19.85;11.02;;;;;;;;;;4964049;28;20055;-61
2022/11/16 07:45:15;;;;;;;17.52;9.65;;;;;;;;;;4962243;28;20023;-71
2022/11/16 07:47:41;;;;;;;16.85;10.15;;;;;;;;;;4963496;28;20034;-61
2022/11/16 07:50:07;;;;;;;22.63;12.07;;;;;;;;;;4972867;28;20509;-61
2022/11/16 07:52:33;;;;;;;20.75;10.95;;;;;;;;;;4949533;28;20051;-65
2022/11/16 07:55:00;;;;;;;17.23;8.98;;;;;;;;;;4962806;28;20533;-65
2022/11/16 07:57:26;;;;;;;17.60;7.72;;;;;;;;;;4962616;28;20799;-64
2022/11/16 07:59:52;;;;;;;21.52;10.45;;;;;;;;;;4961536;28;20039;-62
2022/11/16 08:02:18;;;;;;;13.57;6.88;;;;;;;;;;4963284;28;20022;-61
2022/11/16 08:04:44;;;;;;;11.15;5.70;;;;;;;;;;4962295;28;20038;-60
2022/11/16 08:07:10;;;;;;;13.90;6.25;;;;;;;;;;4961329;28;20475;-70
2022/11/16 08:09:38;;;;;;;11.10;5.75;;;;;;;;;;4961201;28;20118;-68
2022/11/16 08:12:04;;;;;;;10.23;5.63;;;;;;;;;;4956080;28;20097;-63
2022/11/16 08:14:30;;;;;;;14.50;5.75;;;;;;;;;;4962591;28;20149;-68
2022/11/16 12:32:30;;;;;;;10.68;5.80;;;;;;;;;;5116954;23;20042;-67
2022/11/16 12:35:19;;;;;;;11.40;5.22;;;;;;;;;;4953294;29;20081;-69
2022/11/16 12:37:58;;;;;;;9.90;3.72;;;;;;;;;;4951412;29;20174;-67
2022/11/16 12:40:43;;;;;;;11.23;3.42;;;;;;;;;;4950744;29;20031;-66
2022/11/16 12:43:15;;;;;;;8.52;3.75;;;;;;;;;;4952467;28;20426;-68
2022/11/16 12:45:44;;;;;;;10.30;4.38;;;;;;;;;;4958335;28;20098;-68
2022/11/16 12:48:10;;;;;;;7.13;3.83;;;;;;;;;;4960749;28;20019;-65
2022/11/16 12:50:42;;;;;;;6.65;3.80;;;;;;;;;;4962149;28;20037;-66
2022/11/16 12:53:09;;;;;;;;;;;;;;;;;;4960489;28;20098;-64
2022/11/16 12:55:53;;;;;;;7.70;4.03;;;;;;;;;;4962076;28;19960;-66
2022/11/16 12:58:25;;;;;;;8.25;3.75;;;;;;;;;;4961787;28;20470;-66
2022/11/16 13:01:01;;;;;;;6.78;3.53;;;;;;;;;;4960948;28;20364;-67
2022/11/16 13:03:46;;;;;;;10.65;3.65;;;;;;;;;;4958632;28;20562;-67
2022/11/16 13:06:41;;;;;;;6.35;3.25;;;;;;;;;;4960068;28;20025;-67
2022/11/16 13:09:12;;;;;;;6.10;3.00;;;;;;;;;;4948417;28;20041;-64
2022/11/16 13:12:05;;;;;;;8.20;3.35;;;;;;;;;;4961313;28;20034;-65
2022/11/16 13:14:38;;;;;;;7.10;3.05;;;;;;;;;;4956700;28;20083;-66
2022/11/16 13:17:05;;;;;;;6.90;2.88;;;;;;;;;;4958861;28;20027;-66
2022/11/16 13:19:31;;;;;;;5.22;2.80;;;;;;;;;;4960268;28;20026;-64
2022/11/16 13:22:02;;;;;;;7.15;3.10;;;;;;;;;;4961171;28;20030;-65
2022/11/16 14:29:44;;;;;;;22.20;12.00;;;;;;;;;;5032564;23;20138;-64
2022/11/16 14:32:19;;;;;;;25.60;12.55;;;;;;;;;;4954033;28;20162;-64
2022/11/16 14:34:46;;;;;;;25.23;12.93;;;;;;;;;;4971198;28;20041;-65
2022/11/16 14:37:14;;;;;;;29.33;13.18;;;;;;;;;;4971426;28;20430;-64
2022/11/16 14:39:42;;;;;;;22.85;12.52;;;;;;;;;;4953424;28;20402;-65
2022/11/16 14:42:17;;;;;;;28.50;14.75;;;;;;;;;;4970999;28;20583;-64
2022/11/16 14:44:43;;;;;;;27.25;14.40;;;;;;;;;;4971561;28;20461;-64
2022/11/16 14:47:21;;;;;;;28.25;15.50;;;;;;;;;;4971480;28;20037;-66
2022/11/16 14:49:47;;;;;;;31.55;16.27;;;;;;;;;;4971078;28;20050;-63
2022/11/16 14:52:14;;;;;;;27.23;14.25;;;;;;;;;;4973642;28;20030;-64
2022/11/16 14:54:48;;;;;;;26.50;13.50;;;;;;;;;;4974289;28;20489;-65
2022/11/16 14:57:19;;;;;;;23.77;13.02;;;;;;;;;;4974247;28;20162;-64
2022/11/16 14:59:45;;;;;;;35.47;19.20;;;;;;;;;;4974305;28;20027;-65
2022/11/16 15:02:14;;;;;;;31.63;17.58;;;;;;;;;;4974305;28;20022;-64
2022/11/16 15:04:40;;;;;;;23.58;13.00;;;;;;;;;;4973817;28;20023;-64
2022/11/16 15:07:07;;;;;;;19.27;10.48;;;;;;;;;;4974204;28;20479;-64
2022/11/16 15:09:33;;;;;;;21.65;11.10;;;;;;;;;;4973778;28;20505;-63
2022/11/16 15:14:49;;;;;;;22.13;10.48;;;;;;;;;;4973756;28;20077;-63
2022/11/16 15:17:17;;;;;;;19.02;9.77;;;;;;;;;;4973601;28;20422;-64
2022/11/16 15:19:43;;;;;;;17.42;9.70;;;;;;;;;;4974175;28;20026;-64
2022/11/16 15:22:16;;;;;;;18.38;10.15;;;;;;;;;;4973608;28;20094;-65
2022/11/16 15:24:42;;;;;;;13.60;8.25;;;;;;;;;;4973897;28;20398;-72
2022/11/16 15:27:08;;;;;;;17.45;9.93;;;;;;;;;;4974157;28;20089;-65
2022/11/16 15:29:34;;;;;;;21.83;13.75;;;;;;;;;;4956675;28;20498;-66
2022/11/16 15:32:00;;;;;;;108.22;69.25;;;;;;;;;;4954493;29;20050;-65
2022/11/16 15:34:26;;;;;;;22.90;13.65;;;;;;;;;;4954109;29;20403;-66
2022/11/16 15:36:52;;;;;;;16.80;10.02;;;;;;;;;;4954392;29;20388;-64
2022/11/16 15:39:20;;;;;;;40.28;27.77;;;;;;;;;;4954405;29;20446;-64
2022/11/16 15:41:46;;;;;;;29.25;16.48;;;;;;;;;;4954187;29;20059;-64
2022/11/16 15:44:13;;;;;;;17.02;10.10;;;;;;;;;;4954844;29;20024;-64
2022/11/16 15:46:40;;;;;;;22.67;13.50;;;;;;;;;;4954244;29;20031;-63
2022/11/16 15:49:20;;;;;;;23.15;13.73;;;;;;;;;;4936214;29;20035;-65
2022/11/16 15:51:46;;;;;;;22.15;12.63;;;;;;;;;;4935119;29;20044;-64
2022/11/16 15:54:26;;;;;;;22.42;14.25;;;;;;;;;;4935007;29;20027;-64
2022/11/16 15:56:54;;;;;;;23.73;13.07;;;;;;;;;;4934891;29;20031;-65
2022/11/16 15:59:24;;;;;;;34.72;19.13;;;;;;;;;;4935327;29;20028;-65
2022/11/16 16:01:51;;;;;;;18.95;10.55;;;;;;;;;;4935513;29;20028;-70
2022/11/16 16:04:17;;;;;;;19.40;11.60;;;;;;;;;;4917155;29;20491;-63
2022/11/16 16:06:49;;;;;;;18.35;10.65;;;;;;;;;;4934899;29;20020;-64
2022/11/16 16:09:15;;;;;;;;;;;;;;;;;;4935725;29;20028;-63
2022/11/16 16:11:41;;;;;;;17.42;11.48;;;;;;;;;;4935215;29;19941;-63
2022/11/16 16:14:09;;;;;;;17.67;9.57;;;;;;;;;;4935054;29;20401;-63
2022/11/16 16:16:39;;;;;;;17.13;9.27;;;;;;;;;;4935175;29;20111;-64
2022/11/16 16:19:06;;;;;;;16.75;10.05;;;;;;;;;;4934941;29;20023;-62
2022/11/16 16:21:43;;;;;;;14.32;8.77;;;;;;;;;;4934965;29;20024;-65
2022/11/16 16:24:11;;;;;;;14.75;7.70;;;;;;;;;;4935006;29;20031;-63
2022/11/16 16:26:37;;;;;;;17.42;8.63;;;;;;;;;;4934910;29;20028;-63
2022/11/16 16:29:03;;;;;;;15.93;8.30;;;;;;;;;;4934353;29;20463;-65
2022/11/16 16:31:29;;;;;;;19.05;9.65;;;;;;;;;;4934735;29;20483;-64
2022/11/16 16:33:55;;;;;;;14.95;8.23;;;;;;;;;;4934856;29;20070;-64
2022/11/16 16:36:21;;;;;;;16.50;9.40;;;;;;;;;;4934724;29;20035;-66
2022/11/16 16:38:47;;;;;;;19.80;11.02;;;;;;;;;;4934577;29;20028;-61
2022/11/16 16:41:16;;;;;;;18.95;9.80;;;;;;;;;;4948119;29;20093;-62
2022/11/16 16:43:42;;;;;;;18.45;11.07;;;;;;;;;;4953765;29;20132;-62
2022/11/16 16:46:11;;;;;;;15.95;9.40;;;;;;;;;;4953341;29;20115;-61
2022/11/16 16:48:38;;;;;;;16.23;8.55;;;;;;;;;;4953856;29;20471;-60
2022/11/16 16:51:04;;;;;;;16.20;7.57;;;;;;;;;;4953489;29;20035;-62
2022/11/16 16:53:30;;;;;;;17.58;8.57;;;;;;;;;;4953823;29;20035;-62
2022/11/16 16:55:56;;;;;;;20.20;11.15;;;;;;;;;;4953838;29;20031;-62
2022/11/16 16:58:22;;;;;;;18.85;10.32;;;;;;;;;;4953237;29;20443;-63
2022/11/16 17:00:48;;;;;;;16.08;8.90;;;;;;;;;;4953507;29;20031;-61
2022/11/16 17:03:14;;;;;;;16.80;7.97;;;;;;;;;;4953497;29;20054;-65
2022/11/16 17:05:40;;;;;;;14.48;8.40;;;;;;;;;;4953555;29;20082;-66
2022/11/16 17:08:06;;;;;;;14.32;7.45;;;;;;;;;;4953535;29;20031;-61
2022/11/16 17:10:32;;;;;;;13.55;7.90;;;;;;;;;;4953136;29;20546;-62
2022/11/16 17:13:01;;;;;;;15.27;8.43;;;;;;;;;;4953085;29;20067;-61
2022/11/16 17:15:27;;;;;;;17.70;10.93;;;;;;;;;;4935725;29;20041;-61
2022/11/16 17:17:53;;;;;;;19.40;10.82;;;;;;;;;;4953165;29;20019;-68
2022/11/16 17:20:19;;;;;;;23.83;14.52;;;;;;;;;;4953536;29;20030;-62
2022/11/16 17:22:45;;;;;;;24.30;13.93;;;;;;;;;;4953127;29;20042;-65
2022/11/16 17:25:11;;;;;;;20.42;12.20;;;;;;;;;;4935123;29;20063;-62
2022/11/16 17:27:37;;;;;;;19.58;11.45;;;;;;;;;;4952161;28;20382;-63
2022/11/16 17:30:04;;;;;;;20.40;12.75;;;;;;;;;;4952959;29;20444;-62
2022/11/16 17:32:30;;;;;;;21.25;13.52;;;;;;;;;;4952924;29;20035;-61
2022/11/16 17:34:56;;;;;;;24.70;14.18;;;;;;;;;;4952645;29;20106;-61
2022/11/16 17:37:22;;;;;;;21.77;11.70;;;;;;;;;;4952701;29;20126;-62
2022/11/16 17:39:48;;;;;;;23.70;13.07;;;;;;;;;;4952602;29;20109;-63
2022/11/16 17:42:14;;;;;;;22.13;12.48;;;;;;;;;;4952412;29;20506;-62
2022/11/16 17:44:40;;;;;;;22.08;11.88;;;;;;;;;;4952263;29;20534;-69
2022/11/16 17:47:06;;;;;;;22.20;12.15;;;;;;;;;;4952275;29;20031;-61
2022/11/16 17:49:32;;;;;;;20.98;11.27;;;;;;;;;;4952255;29;20842;-69
2022/11/16 17:51:58;;;;;;;22.17;11.68;;;;;;;;;;4952337;29;20474;-61
2022/11/16 17:54:24;;;;;;;22.33;11.95;;;;;;;;;;4952363;29;20031;-61
2022/11/16 17:56:50;;;;;;;22.98;11.45;;;;;;;;;;4952738;29;20027;-68
2022/11/16 17:59:16;;;;;;;20.42;11.57;;;;;;;;;;4951809;29;20038;-61
2022/11/16 18:01:42;;;;;;;15.57;8.88;;;;;;;;;;4952379;29;20027;-62
2022/11/16 18:04:08;;;;;;;14.75;8.48;;;;;;;;;;4952424;29;20071;-61
2022/11/16 18:06:35;;;;;;;16.70;9.57;;;;;;;;;;4952189;29;20027;-61
2022/11/16 18:09:01;;;;;;;17.05;9.07;;;;;;;;;;4952221;29;20058;-61
2022/11/16 18:11:27;;;;;;;18.23;8.82;;;;;;;;;;4952304;29;20389;-63
2022/11/16 18:13:57;;;;;;;20.15;10.85;;;;;;;;;;4952744;29;20028;-61
2022/11/16 18:16:25;;;;;;;19.77;11.35;;;;;;;;;;4952556;29;20041;-62
2022/11/16 18:18:56;;;;;;;23.73;12.35;;;;;;;;;;4952612;29;20106;-62
2022/11/16 18:21:22;;;;;;;24.38;12.60;;;;;;;;;;4952760;29;20038;-60
2022/11/16 18:23:48;;;;;;;24.48;12.85;;;;;;;;;;4952424;29;20483;-60
2022/11/16 18:26:16;;;;;;;25.58;12.82;;;;;;;;;;4953417;28;20908;-61
2022/11/16 18:28:45;;;;;;;24.45;14.70;;;;;;;;;;4955919;28;20122;-60
2022/11/16 18:31:12;;;;;;;27.02;15.00;;;;;;;;;;4956293;29;20130;-60
2022/11/16 18:33:38;;;;;;;33.95;16.17;;;;;;;;;;4955456;29;20464;-63
2022/11/16 18:36:06;;;;;;;29.05;15.52;;;;;;;;;;4955005;29;20039;-59
2022/11/16 18:38:32;;;;;;;32.88;16.88;;;;;;;;;;4955511;29;20054;-60
2022/11/16 18:41:16;;;;;;;35.80;18.50;;;;;;;;;;4956287;29;20525;-60
2022/11/16 18:43:53;;;;;;;37.20;18.98;;;;;;;;;;4955449;29;20468;-60
2022/11/16 18:46:19;;;;;;;41.47;20.02;;;;;;;;;;4956022;29;20027;-60
2022/11/16 18:48:45;;;;;;;43.70;20.55;;;;;;;;;;4956161;29;20027;-61
2022/11/16 18:51:12;;;;;;;44.47;21.88;;;;;;;;;;4955866;29;20043;-60
2022/11/16 18:53:38;;;;;;;48.58;23.15;;;;;;;;;;4955915;29;20059;-60
2022/11/16 18:56:04;;;;;;;44.10;21.45;;;;;;;;;;4955658;29;20739;-61
2022/11/16 18:58:30;;;;;;;43.47;22.20;;;;;;;;;;4955741;29;20090;-60
2022/11/16 19:01:00;;;;;;;38.65;21.02;;;;;;;;;;4955488;29;20504;-62
2022/11/16 19:03:26;;;;;;;38.13;19.25;;;;;;;;;;4954162;29;20024;-62
2022/11/16 19:05:56;;;;;;;37.40;18.90;;;;;;;;;;4955255;29;20443;-60
2022/11/16 19:08:22;;;;;;;34.83;18.40;;;;;;;;;;4955101;29;20444;-61
2022/11/16 19:10:48;;;;;;;39.22;19.67;;;;;;;;;;4955278;29;20773;-69
2022/11/16 19:13:14;;;;;;;40.83;22.30;;;;;;;;;;4955405;29;20035;-64
2022/11/16 19:15:41;;;;;;;37.88;21.02;;;;;;;;;;4955073;29;20436;-62
2022/11/16 19:18:07;;;;;;;41.28;20.98;;;;;;;;;;4954987;29;20034;-60
2022/11/16 19:20:33;;;;;;;42.28;22.02;;;;;;;;;;4955302;29;20395;-67
2022/11/16 19:22:59;;;;;;;33.00;18.02;;;;;;;;;;4955349;29;20500;-60
2022/11/16 19:25:25;;;;;;;30.55;15.70;;;;;;;;;;4955252;29;20027;-63
2022/11/16 19:27:51;;;;;;;29.50;16.10;;;;;;;;;;4954488;28;20038;-62
2022/11/16 19:30:17;;;;;;;33.67;16.73;;;;;;;;;;4954567;29;20027;-61
2022/11/16 19:32:44;;;;;;;24.27;13.77;;;;;;;;;;4949483;29;20042;-61
2022/11/16 19:35:10;;;;;;;27.25;15.30;;;;;;;;;;4942955;29;20089;-61
2022/11/16 19:37:37;;;;;;;30.30;16.17;;;;;;;;;;4943991;28;20383;-60
2022/11/16 19:40:03;;;;;;;33.70;18.95;;;;;;;;;;4943769;29;20107;-65
2022/11/16 19:42:29;;;;;;;32.80;19.58;;;;;;;;;;4943040;29;20223;-60
2022/11/16 19:44:55;;;;;;;33.05;18.23;;;;;;;;;;4950852;29;20023;-59
2022/11/16 19:47:25;;;;;;;30.23;17.05;;;;;;;;;;4947475;29;20031;-60
2022/11/16 19:49:51;;;;;;;30.48;15.93;;;;;;;;;;4935029;29;20032;-63
2022/11/16 19:52:18;;;;;;;29.08;16.58;;;;;;;;;;4935184;29;20442;-69
2022/11/16 19:54:44;;;;;;;29.33;15.65;;;;;;;;;;4938918;29;20144;-60
2022/11/16 19:57:11;;;;;;;29.50;15.68;;;;;;;;;;4942684;29;20383;-61
2022/11/16 19:59:37;;;;;;;31.02;15.95;;;;;;;;;;4944213;29;20028;-61
2022/11/16 20:02:04;;;;;;;28.95;16.92;;;;;;;;;;4943301;29;20024;-61
2022/11/16 20:04:34;;;;;;;28.33;15.30;;;;;;;;;;4942738;29;20028;-60
2022/11/16 20:07:00;;;;;;;31.38;16.70;;;;;;;;;;4944337;29;20060;-62
2022/11/16 20:09:26;;;;;;;31.77;17.63;;;;;;;;;;4943559;29;20027;-59
2022/11/16 20:11:53;;;;;;;27.73;15.13;;;;;;;;;;4941766;29;20507;-61
2022/11/16 20:14:20;;;;;;;27.00;14.75;;;;;;;;;;4953677;29;20031;-63
2022/11/16 20:16:49;;;;;;;29.05;15.77;;;;;;;;;;4953808;29;20035;-62
2022/11/16 20:19:16;;;;;;;20.75;11.30;;;;;;;;;;4953313;29;20024;-66
2022/11/16 20:21:43;;;;;;;23.15;11.20;;;;;;;;;;4953840;29;20460;-61
2022/11/16 20:24:11;;;;;;;24.92;13.65;;;;;;;;;;4953805;29;20037;-67
2022/11/16 20:26:40;;;;;;;22.55;12.10;;;;;;;;;;4953647;29;20059;-61
2022/11/16 20:29:06;;;;;;;19.35;11.15;;;;;;;;;;4952907;29;20507;-62
2022/11/16 20:31:33;;;;;;;20.88;11.30;;;;;;;;;;4953677;29;20534;-61
2022/11/16 20:34:00;;;;;;;29.60;13.98;;;;;;;;;;4953194;29;20035;-62
2022/11/16 20:36:28;;;;;;;21.85;11.38;;;;;;;;;;4953770;29;20035;-61
2022/11/16 20:38:54;;;;;;;23.25;11.90;;;;;;;;;;4952974;29;20024;-60
2022/11/16 20:41:21;;;;;;;25.35;14.18;;;;;;;;;;4965142;29;20035;-66
2022/11/16 20:43:49;;;;;;;26.02;13.98;;;;;;;;;;4953384;29;20443;-59
2022/11/16 20:46:16;;;;;;;27.42;14.80;;;;;;;;;;4953513;29;20105;-66
2022/11/16 20:48:43;;;;;;;27.73;15.40;;;;;;;;;;4952561;28;20582;-61
2022/11/16 20:51:10;;;;;;;29.15;15.82;;;;;;;;;;4953346;29;20075;-68
2022/11/16 20:53:36;;;;;;;33.38;18.27;;;;;;;;;;4953067;29;20755;-66
2022/11/16 20:56:03;;;;;;;28.90;16.27;;;;;;;;;;4953238;29;20027;-61
2022/11/16 20:58:29;;;;;;;26.42;15.30;;;;;;;;;;4953070;29;20483;-61
2022/11/16 21:00:55;;;;;;;33.42;16.95;;;;;;;;;;4938097;29;20034;-61
2022/11/16 21:03:21;;;;;;;28.58;15.90;;;;;;;;;;4934497;29;20028;-59
2022/11/16 21:05:50;;;;;;;24.67;14.35;;;;;;;;;;4937913;29;20498;-61
2022/11/16 21:08:17;;;;;;;71.93;34.13;;;;;;;;;;4934278;29;20387;-61
2022/11/16 21:10:43;;;;;;;50.67;25.25;;;;;;;;;;4934153;29;20503;-59
2022/11/16 21:15:57;;;;;;;30.30;17.20;;;;;;;;;;4934423;29;20172;-60
2022/11/16 21:18:24;;;;;;;29.00;17.05;;;;;;;;;;4934495;29;20479;-67
2022/11/16 21:20:57;;;;;;;30.83;17.48;;;;;;;;;;4934240;29;20059;-66
2022/11/16 21:23:23;;;;;;;32.60;17.58;;;;;;;;;;4934189;29;20031;-66
2022/11/16 21:25:49;;;;;;;33.08;17.88;;;;;;;;;;4934246;29;20028;-61
2022/11/16 21:28:16;;;;;;;28.73;16.13;;;;;;;;;;4933643;29;20063;-66
2022/11/16 21:30:53;;;;;;;29.45;17.30;;;;;;;;;;4933670;29;20569;-60
2022/11/16 21:33:19;;;;;;;27.75;15.77;;;;;;;;;;4933875;29;20080;-62
2022/11/16 21:35:45;;;;;;;27.35;15.30;;;;;;;;;;4934003;29;20028;-62
2022/11/16 21:38:11;;;;;;;26.70;14.73;;;;;;;;;;4934059;29;20047;-68
2022/11/16 21:40:37;;;;;;;31.95;16.95;;;;;;;;;;4933692;29;20361;-62
2022/11/16 21:43:03;;;;;;;26.67;13.80;;;;;;;;;;4933756;29;20519;-62
2022/11/16 21:45:29;;;;;;;26.98;14.77;;;;;;;;;;4933562;29;20031;-62
2022/11/16 21:47:56;;;;;;;25.08;14.05;;;;;;;;;;4933844;29;20037;-65
2022/11/16 21:50:22;;;;;;;25.73;13.68;;;;;;;;;;4933771;29;20107;-63
2022/11/16 21:52:49;;;;;;;23.00;13.13;;;;;;;;;;4933198;29;20038;-62
2022/11/16 21:55:15;;;;;;;24.13;12.15;;;;;;;;;;4933695;29;20038;-62
2022/11/16 21:57:41;;;;;;;19.55;10.82;;;;;;;;;;4933356;29;20060;-62
2022/11/16 22:00:07;;;;;;;20.05;11.25;;;;;;;;;;4934343;29;20038;-61
2022/11/16 22:02:33;;;;;;;17.05;10.65;;;;;;;;;;4937223;29;20476;-64
2022/11/16 22:07:44;;;;;;;19.98;11.65;;;;;;;;;;4937041;29;20099;-64
2022/11/16 22:10:11;;;;;;;19.88;10.75;;;;;;;;;;4937131;29;20050;-68
2022/11/16 22:12:38;;;;;;;21.85;10.88;;;;;;;;;;4937193;29;20039;-66
2022/11/16 22:15:05;;;;;;;22.15;11.15;;;;;;;;;;4936779;29;20110;-63
